TimeCST,TemperatureF,Dew PointF,Humidity,Sea Level PressureIn,VisibilityMPH,Wind Direction,Wind SpeedMPH,Gust SpeedMPH,PrecipitationIn,Events,Conditions,WindDirDegrees,DateUTC
12:00 AM,70,62,69,29.87,12,East,2.3,,,,Mostly Cloudy,80,2013-06-24 06:00:00
12:00 AM,69.8,62.6,78,300.04,-9999.0,East,2.3,-,N/A,,Clear,80,2013-06-24 06:00:00
1:00 AM,69.8,60.8,73,30.01,-9999.0,NE,2.3,-,N/A,,Clear,40,2013-06-24 07:00:00
2:00 AM,69.8,60.8,73,29.99,-9999.0,NE,5.8,-,N/A,,Clear,50,2013-06-24 08:00:00
3:00 AM,69,61,68,29.79,12,East,3.5,,,,Mostly Cloudy,80,2013-06-24 09:00:00
3:00 AM,69.8,60.8,73,29.99,-9999.0,East,3.5,-,N/A,,Clear,80,2013-06-24 09:00:00
4:00 AM,68.0,62.6,83,30.01,-9999.0,NW,3.5,-,N/A,,Clear,310,2013-06-24 10:00:00
5:00 AM,68.0,62.6,83,30.02,-9999.0,South,2.3,-,N/A,,Clear,180,2013-06-24 11:00:00
6:00 AM,68,62,74,29.88,12,NNE,3.5,,,Rain,Light Rain,20,2013-06-24 12:00:00
6:00 AM,68.0,62.6,83,30.05,6.2,NNE,3.5,-,N/A,Rain,Light Rain,20,2013-06-24 12:00:00
7:00 AM,68.0,62.6,83,30.07,6.2,East,3.5,-,N/A,Rain,Light Rain,100,2013-06-24 13:00:00
8:00 AM,69.8,62.6,78,30.06,-9999.0,ENE,6.9,-,N/A,,Clear,60,2013-06-24 14:00:00
9:00 AM,76,61,50,29.89,12,ENE,3.5,,,,Mostly Cloudy,60,2013-06-24 15:00:00
9:00 AM,77.0,60.8,57,30.06,-9999.0,ENE,3.5,-,N/A,,Clear,60,2013-06-24 15:00:00
10:00 AM,80.6,60.8,51,30.05,-9999.0,ESE,6.9,-,N/A,,Clear,120,2013-06-24 16:00:00
11:00 AM,80.6,62.6,54,30.04,-9999.0,ESE,6.9,-,N/A,,Clear,110,2013-06-24 17:00:00
12:00 PM,83,63,40,29.84,12,East,8.1,,,,Overcast,100,2013-06-24 18:00:00
12:00 PM,82.4,62.6,51,30.02,6.2,East,8.1,-,N/A,,Mostly Cloudy,100,2013-06-24 18:00:00
1:00 PM,82.4,62.6,51,30.02,6.2,East,8.1,-,N/A,,Mostly Cloudy,90,2013-06-24 19:00:00
2:00 PM,77.0,68.0,74,30.02,6.2,SW,10.4,-,N/A,,Mostly Cloudy,230,2013-06-24 20:00:00
3:00 PM,76,64,58,29.83,6,West,9.2,,,Rain,Light Rain,260,2013-06-24 21:00:00
3:00 PM,77.0,64.4,65,30.01,6.2,West,9.2,-,N/A,Rain,Light Rain,260,2013-06-24 21:00:00
3:05 PM,75.2,66.2,73,30.01,3.1,SSW,6.9,-,N/A,Rain,Rain Showers,200,2013-06-24 21:05:00
4:00 PM,73.4,69.8,88,30.01,6.2,NW,3.5,-,N/A,Rain,Light Rain,310,2013-06-24 22:00:00
5:00 PM,69.8,64.4,83,30.02,6.2,ENE,3.5,-,N/A,,Drizzle,70,2013-06-24 23:00:00
6:00 PM,71,64,71,29.88,12,ENE,6.9,,,Rain,Light Drizzle,70,2013-06-25 00:00:00
6:00 PM,71.6,64.4,78,30.02,-9999.0,ENE,6.9,-,N/A,,Clear,70,2013-06-25 00:00:00
7:00 PM,69.8,64.4,83,30.04,-9999.0,ENE,3.5,-,N/A,,Clear,60,2013-06-25 01:00:00
8:00 PM,71.6,62.6,73,30.05,-9999.0,East,3.5,-,N/A,,Clear,100,2013-06-25 02:00:00
9:00 PM,72,62,63,29.87,12,East,9.2,,,,Overcast,80,2013-06-25 03:00:00
9:00 PM,71.6,62.6,73,30.04,-9999.0,East,9.2,-,N/A,,Clear,80,2013-06-25 03:00:00
10:00 PM,73.4,60.8,65,30.04,-9999.0,ESE,9.2,-,N/A,,Clear,110,2013-06-25 04:00:00
11:00 PM,68.0,66.2,94,30.04,-9999.0,SW,8.1,-,N/A,,Clear,230,2013-06-25 05:00:00